sensor_id;sensor_type;location;lat;lon;timestamp;P1;durP1;ratioP1;P2;durP2;ratioP2
8074;SDS011;4080;42.676;23.372;2022-11-20T00:01:14;11.23;;;8.50;;
8074;SDS011;4080;42.676;23.372;2022-11-20T00:03:42;15.80;;;14.07;;
8074;SDS011;4080;42.676;23.372;2022-11-20T00:06:09;11.47;;;9.63;;
8074;SDS011;4080;42.676;23.372;2022-11-20T00:08:40;10.70;;;8.57;;
8074;SDS011;4080;42.676;23.372;2022-11-20T00:11:08;12.97;;;8.87;;
8074;SDS011;4080;42.676;23.372;2022-11-20T00:13:36;10.90;;;8.33;;
8074;SDS011;4080;42.676;23.372;2022-11-20T00:16:05;18.87;;;10.23;;
8074;SDS011;4080;42.676;23.372;2022-11-20T00:18:33;21.87;;;10.73;;
8074;SDS011;4080;42.676;23.372;2022-11-20T00:21:00;12.63;;;9.70;;
8074;SDS011;4080;42.676;23.372;2022-11-20T00:23:31;11.90;;;8.83;;
8074;SDS011;4080;42.676;23.372;2022-11-20T00:26:01;10.77;;;7.80;;
8074;SDS011;4080;42.676;23.372;2022-11-20T00:28:29;12.10;;;8.53;;
8074;SDS011;4080;42.676;23.372;2022-11-20T00:31:05;12.33;;;8.07;;
8074;SDS011;4080;42.676;23.372;2022-11-20T00:33:33;12.07;;;9.30;;
8074;SDS011;4080;42.676;23.372;2022-11-20T00:36:04;7.60;;;6.57;;
8074;SDS011;4080;42.676;23.372;2022-11-20T00:38:32;12.50;;;7.70;;
8074;SDS011;4080;42.676;23.372;2022-11-20T00:41:00;15.57;;;8.70;;
8074;SDS011;4080;42.676;23.372;2022-11-20T00:43:28;10.57;;;7.77;;
8074;SDS011;4080;42.676;23.372;2022-11-20T00:45:58;10.50;;;7.50;;
8074;SDS011;4080;42.676;23.372;2022-11-20T00:48:28;7.77;;;4.50;;
8074;SDS011;4080;42.676;23.372;2022-11-20T00:50:55;6.23;;;4.00;;
8074;SDS011;4080;42.676;23.372;2022-11-20T00:53:23;7.17;;;4.47;;
8074;SDS011;4080;42.676;23.372;2022-11-20T00:55:54;12.13;;;6.93;;
8074;SDS011;4080;42.676;23.372;2022-11-20T00:58:24;7.87;;;5.30;;
8074;SDS011;4080;42.676;23.372;2022-11-20T01:00:54;7.00;;;4.73;;
8074;SDS011;4080;42.676;23.372;2022-11-20T01:03:27;5.63;;;4.50;;
8074;SDS011;4080;42.676;23.372;2022-11-20T01:05:59;4.43;;;4.03;;
8074;SDS011;4080;42.676;23.372;2022-11-20T01:08:28;5.40;;;3.47;;
8074;SDS011;4080;42.676;23.372;2022-11-20T01:10:58;4.03;;;3.57;;
8074;SDS011;4080;42.676;23.372;2022-11-20T01:13:25;5.50;;;3.27;;
8074;SDS011;4080;42.676;23.372;2022-11-20T01:16:04;4.33;;;3.20;;
8074;SDS011;4080;42.676;23.372;2022-11-20T01:18:34;5.30;;;3.40;;
8074;SDS011;4080;42.676;23.372;2022-11-20T01:21:01;5.20;;;3.20;;
8074;SDS011;4080;42.676;23.372;2022-11-20T01:23:32;4.07;;;2.50;;
8074;SDS011;4080;42.676;23.372;2022-11-20T01:26:00;8.27;;;3.90;;
8074;SDS011;4080;42.676;23.372;2022-11-20T01:28:27;4.37;;;2.47;;
8074;SDS011;4080;42.676;23.372;2022-11-20T01:30:54;5.07;;;3.17;;
8074;SDS011;4080;42.676;23.372;2022-11-20T01:33:21;5.37;;;3.73;;
8074;SDS011;4080;42.676;23.372;2022-11-20T01:35:50;4.67;;;3.40;;
8074;SDS011;4080;42.676;23.372;2022-11-20T01:38:16;5.53;;;3.83;;
8074;SDS011;4080;42.676;23.372;2022-11-20T01:40:45;5.47;;;3.83;;
8074;SDS011;4080;42.676;23.372;2022-11-20T01:43:19;4.23;;;3.50;;
8074;SDS011;4080;42.676;23.372;2022-11-20T01:45:56;5.80;;;3.90;;
8074;SDS011;4080;42.676;23.372;2022-11-20T01:48:39;6.67;;;4.27;;
8074;SDS011;4080;42.676;23.372;2022-11-20T01:51:20;7.27;;;2.50;;
8074;SDS011;4080;42.676;23.372;2022-11-20T01:53:52;4.63;;;3.40;;
8074;SDS011;4080;42.676;23.372;2022-11-20T01:56:21;8.47;;;2.80;;
8074;SDS011;4080;42.676;23.372;2022-11-20T01:58:50;5.50;;;2.90;;
8074;SDS011;4080;42.676;23.372;2022-11-20T02:01:20;3.97;;;2.73;;
8074;SDS011;4080;42.676;23.372;2022-11-20T02:03:47;3.63;;;2.63;;
8074;SDS011;4080;42.676;23.372;2022-11-20T02:06:17;4.30;;;3.07;;
8074;SDS011;4080;42.676;23.372;2022-11-20T02:08:50;4.17;;;2.97;;
8074;SDS011;4080;42.676;23.372;2022-11-20T02:11:17;3.60;;;2.40;;
8074;SDS011;4080;42.676;23.372;2022-11-20T02:13:44;5.00;;;2.60;;
8074;SDS011;4080;42.676;23.372;2022-11-20T02:16:12;5.57;;;2.63;;
8074;SDS011;4080;42.676;23.372;2022-11-20T02:18:41;8.03;;;3.47;;
8074;SDS011;4080;42.676;23.372;2022-11-20T02:21:10;15.13;;;4.40;;
8074;SDS011;4080;42.676;23.372;2022-11-20T02:23:55;6.27;;;2.87;;
8074;SDS011;4080;42.676;23.372;2022-11-20T02:26:34;45.03;;;9.33;;
8074;SDS011;4080;42.676;23.372;2022-11-20T02:29:07;10.60;;;3.37;;
8074;SDS011;4080;42.676;23.372;2022-11-20T02:31:37;4.23;;;2.27;;
8074;SDS011;4080;42.676;23.372;2022-11-20T02:34:06;14.03;;;3.47;;
8074;SDS011;4080;42.676;23.372;2022-11-20T02:36:33;19.90;;;5.10;;
8074;SDS011;4080;42.676;23.372;2022-11-20T02:39:03;4.50;;;2.17;;
8074;SDS011;4080;42.676;23.372;2022-11-20T02:41:31;5.70;;;2.43;;
8074;SDS011;4080;42.676;23.372;2022-11-20T02:44:00;3.07;;;2.00;;
8074;SDS011;4080;42.676;23.372;2022-11-20T02:46:26;3.13;;;1.90;;
8074;SDS011;4080;42.676;23.372;2022-11-20T02:48:53;6.33;;;2.53;;
8074;SDS011;4080;42.676;23.372;2022-11-20T02:51:20;6.67;;;2.33;;
8074;SDS011;4080;42.676;23.372;2022-11-20T02:53:47;3.80;;;1.50;;
8074;SDS011;4080;42.676;23.372;2022-11-20T02:56:15;3.03;;;1.40;;
8074;SDS011;4080;42.676;23.372;2022-11-20T02:58:42;4.20;;;2.03;;
8074;SDS011;4080;42.676;23.372;2022-11-20T03:01:09;2.70;;;1.43;;
8074;SDS011;4080;42.676;23.372;2022-11-20T03:03:35;8.30;;;2.20;;
8074;SDS011;4080;42.676;23.372;2022-11-20T03:06:02;4.17;;;1.50;;
8074;SDS011;4080;42.676;23.372;2022-11-20T03:08:29;3.23;;;1.23;;
8074;SDS011;4080;42.676;23.372;2022-11-20T03:10:56;3.97;;;1.63;;
8074;SDS011;4080;42.676;23.372;2022-11-20T03:13:24;5.43;;;1.60;;
8074;SDS011;4080;42.676;23.372;2022-11-20T03:15:51;4.27;;;1.63;;
8074;SDS011;4080;42.676;23.372;2022-11-20T03:18:17;11.50;;;6.60;;
8074;SDS011;4080;42.676;23.372;2022-11-20T03:20:44;7.97;;;3.60;;
8074;SDS011;4080;42.676;23.372;2022-11-20T03:23:11;4.03;;;2.00;;
8074;SDS011;4080;42.676;23.372;2022-11-20T03:25:37;5.77;;;2.10;;
8074;SDS011;4080;42.676;23.372;2022-11-20T03:28:04;3.50;;;1.60;;
8074;SDS011;4080;42.676;23.372;2022-11-20T03:30:32;3.37;;;1.57;;
8074;SDS011;4080;42.676;23.372;2022-11-20T03:32:59;3.50;;;1.53;;
8074;SDS011;4080;42.676;23.372;2022-11-20T03:35:25;3.20;;;1.50;;
8074;SDS011;4080;42.676;23.372;2022-11-20T03:37:52;2.80;;;1.67;;
8074;SDS011;4080;42.676;23.372;2022-11-20T03:40:19;1.77;;;1.37;;
8074;SDS011;4080;42.676;23.372;2022-11-20T03:42:46;2.27;;;1.43;;
8074;SDS011;4080;42.676;23.372;2022-11-20T03:45:12;1.73;;;1.20;;
8074;SDS011;4080;42.676;23.372;2022-11-20T03:47:41;3.47;;;1.50;;
8074;SDS011;4080;42.676;23.372;2022-11-20T03:50:09;3.23;;;1.60;;
8074;SDS011;4080;42.676;23.372;2022-11-20T03:52:37;2.23;;;1.40;;
8074;SDS011;4080;42.676;23.372;2022-11-20T03:55:04;1.60;;;1.40;;
8074;SDS011;4080;42.676;23.372;2022-11-20T03:57:31;3.30;;;1.50;;
8074;SDS011;4080;42.676;23.372;2022-11-20T03:59:58;3.10;;;1.47;;
8074;SDS011;4080;42.676;23.372;2022-11-20T04:02:25;3.63;;;1.20;;
8074;SDS011;4080;42.676;23.372;2022-11-20T04:04:53;3.23;;;1.43;;
8074;SDS011;4080;42.676;23.372;2022-11-20T04:07:20;3.80;;;2.03;;
8074;SDS011;4080;42.676;23.372;2022-11-20T04:09:46;2.87;;;1.53;;
8074;SDS011;4080;42.676;23.372;2022-11-20T04:12:13;2.20;;;1.33;;
8074;SDS011;4080;42.676;23.372;2022-11-20T04:14:40;2.20;;;1.20;;
8074;SDS011;4080;42.676;23.372;2022-11-20T04:17:06;2.17;;;1.20;;
8074;SDS011;4080;42.676;23.372;2022-11-20T04:19:33;3.07;;;1.40;;
8074;SDS011;4080;42.676;23.372;2022-11-20T04:22:01;2.63;;;1.40;;
8074;SDS011;4080;42.676;23.372;2022-11-20T04:24:28;2.03;;;1.30;;
8074;SDS011;4080;42.676;23.372;2022-11-20T04:26:55;2.63;;;1.10;;
8074;SDS011;4080;42.676;23.372;2022-11-20T04:29:21;1.80;;;1.10;;
8074;SDS011;4080;42.676;23.372;2022-11-20T04:31:48;2.00;;;1.27;;
8074;SDS011;4080;42.676;23.372;2022-11-20T04:34:15;2.77;;;1.47;;
8074;SDS011;4080;42.676;23.372;2022-11-20T04:36:41;1.67;;;1.03;;
8074;SDS011;4080;42.676;23.372;2022-11-20T04:39:12;2.33;;;1.27;;
8074;SDS011;4080;42.676;23.372;2022-11-20T04:45:04;3.13;;;1.10;;
8074;SDS011;4080;42.676;23.372;2022-11-20T05:12:12;2.40;;;1.40;;
8074;SDS011;4080;42.676;23.372;2022-11-20T05:15:23;1.80;;;1.37;;
8074;SDS011;4080;42.676;23.372;2022-11-20T05:19:08;3.97;;;1.90;;
8074;SDS011;4080;42.676;23.372;2022-11-20T05:22:44;2.13;;;1.30;;
8074;SDS011;4080;42.676;23.372;2022-11-20T05:25:17;4.10;;;1.20;;
8074;SDS011;4080;42.676;23.372;2022-11-20T05:27:55;4.17;;;1.40;;
8074;SDS011;4080;42.676;23.372;2022-11-20T05:30:29;3.63;;;1.10;;
8074;SDS011;4080;42.676;23.372;2022-11-20T05:33:14;3.73;;;1.30;;
8074;SDS011;4080;42.676;23.372;2022-11-20T05:36:08;3.70;;;1.27;;
8074;SDS011;4080;42.676;23.372;2022-11-20T05:38:36;4.00;;;1.23;;
8074;SDS011;4080;42.676;23.372;2022-11-20T05:41:04;2.43;;;1.37;;
8074;SDS011;4080;42.676;23.372;2022-11-20T05:43:33;3.60;;;1.37;;
8074;SDS011;4080;42.676;23.372;2022-11-20T05:46:01;2.93;;;1.70;;
8074;SDS011;4080;42.676;23.372;2022-11-20T05:48:34;3.57;;;1.53;;
8074;SDS011;4080;42.676;23.372;2022-11-20T05:51:43;3.23;;;1.80;;
8074;SDS011;4080;42.676;23.372;2022-11-20T05:55:14;4.00;;;1.90;;
8074;SDS011;4080;42.676;23.372;2022-11-20T05:57:41;2.90;;;1.60;;
8074;SDS011;4080;42.676;23.372;2022-11-20T06:00:10;5.77;;;1.87;;
8074;SDS011;4080;42.676;23.372;2022-11-20T06:02:37;2.47;;;1.50;;
8074;SDS011;4080;42.676;23.372;2022-11-20T06:05:05;3.90;;;1.57;;
8074;SDS011;4080;42.676;23.372;2022-11-20T06:07:32;2.80;;;1.43;;
8074;SDS011;4080;42.676;23.372;2022-11-20T06:09:58;6.50;;;1.60;;
8074;SDS011;4080;42.676;23.372;2022-11-20T06:12:25;3.97;;;1.60;;
8074;SDS011;4080;42.676;23.372;2022-11-20T06:14:52;3.13;;;1.53;;
8074;SDS011;4080;42.676;23.372;2022-11-20T06:17:20;3.30;;;1.47;;
8074;SDS011;4080;42.676;23.372;2022-11-20T06:19:46;4.60;;;1.60;;
8074;SDS011;4080;42.676;23.372;2022-11-20T06:22:13;5.37;;;1.83;;
8074;SDS011;4080;42.676;23.372;2022-11-20T06:24:40;4.20;;;1.40;;
8074;SDS011;4080;42.676;23.372;2022-11-20T06:27:07;4.03;;;1.73;;
8074;SDS011;4080;42.676;23.372;2022-11-20T06:29:33;5.57;;;2.17;;
8074;SDS011;4080;42.676;23.372;2022-11-20T06:32:00;3.20;;;2.00;;
8074;SDS011;4080;42.676;23.372;2022-11-20T06:34:28;3.43;;;1.50;;
8074;SDS011;4080;42.676;23.372;2022-11-20T06:36:55;2.73;;;1.70;;
8074;SDS011;4080;42.676;23.372;2022-11-20T06:42:44;2.77;;;1.60;;
8074;SDS011;4080;42.676;23.372;2022-11-20T06:48:19;4.37;;;1.43;;
8074;SDS011;4080;42.676;23.372;2022-11-20T06:57:31;5.93;;;1.60;;
8074;SDS011;4080;42.676;23.372;2022-11-20T06:59:59;6.07;;;1.40;;
8074;SDS011;4080;42.676;23.372;2022-11-20T07:02:25;3.53;;;1.30;;
8074;SDS011;4080;42.676;23.372;2022-11-20T07:04:52;4.37;;;1.40;;
8074;SDS011;4080;42.676;23.372;2022-11-20T07:07:19;3.53;;;1.53;;
8074;SDS011;4080;42.676;23.372;2022-11-20T07:09:45;3.10;;;1.80;;
8074;SDS011;4080;42.676;23.372;2022-11-20T07:12:12;4.07;;;1.90;;
8074;SDS011;4080;42.676;23.372;2022-11-20T07:14:40;3.07;;;1.80;;
8074;SDS011;4080;42.676;23.372;2022-11-20T07:17:07;5.83;;;2.00;;
8074;SDS011;4080;42.676;23.372;2022-11-20T07:19:34;2.50;;;1.73;;
8074;SDS011;4080;42.676;23.372;2022-11-20T07:22:00;4.47;;;2.00;;
8074;SDS011;4080;42.676;23.372;2022-11-20T07:24:27;2.93;;;1.33;;
8074;SDS011;4080;42.676;23.372;2022-11-20T07:26:54;1.97;;;1.77;;
8074;SDS011;4080;42.676;23.372;2022-11-20T07:29:20;4.83;;;1.83;;
8074;SDS011;4080;42.676;23.372;2022-11-20T07:31:48;2.97;;;2.00;;
8074;SDS011;4080;42.676;23.372;2022-11-20T07:34:15;6.03;;;1.93;;
8074;SDS011;4080;42.676;23.372;2022-11-20T07:36:42;2.33;;;1.43;;
8074;SDS011;4080;42.676;23.372;2022-11-20T07:39:09;2.20;;;1.70;;
8074;SDS011;4080;42.676;23.372;2022-11-20T07:41:35;3.37;;;1.70;;
8074;SDS011;4080;42.676;23.372;2022-11-20T07:44:02;2.80;;;1.57;;
8074;SDS011;4080;42.676;23.372;2022-11-20T07:46:29;3.17;;;1.60;;
8074;SDS011;4080;42.676;23.372;2022-11-20T07:48:58;2.37;;;1.70;;
8074;SDS011;4080;42.676;23.372;2022-11-20T07:51:24;4.37;;;1.60;;
8074;SDS011;4080;42.676;23.372;2022-11-20T07:53:52;3.53;;;1.50;;
8074;SDS011;4080;42.676;23.372;2022-11-20T07:56:19;4.77;;;1.60;;
8074;SDS011;4080;42.676;23.372;2022-11-20T07:58:45;5.90;;;1.53;;
8074;SDS011;4080;42.676;23.372;2022-11-20T08:01:12;7.60;;;2.67;;
8074;SDS011;4080;42.676;23.372;2022-11-20T08:03:39;4.33;;;1.80;;
8074;SDS011;4080;42.676;23.372;2022-11-20T08:06:07;7.40;;;1.90;;
8074;SDS011;4080;42.676;23.372;2022-11-20T08:08:34;5.17;;;1.73;;
8074;SDS011;4080;42.676;23.372;2022-11-20T08:11:01;4.93;;;1.80;;
8074;SDS011;4080;42.676;23.372;2022-11-20T08:13:45;8.67;;;2.53;;
8074;SDS011;4080;42.676;23.372;2022-11-20T08:16:29;6.70;;;1.80;;
8074;SDS011;4080;42.676;23.372;2022-11-20T08:18:56;3.97;;;1.63;;
8074;SDS011;4080;42.676;23.372;2022-11-20T08:21:24;2.87;;;1.90;;
8074;SDS011;4080;42.676;23.372;2022-11-20T08:23:50;4.53;;;1.50;;
8074;SDS011;4080;42.676;23.372;2022-11-20T08:26:17;4.53;;;1.80;;
8074;SDS011;4080;42.676;23.372;2022-11-20T08:28:44;5.57;;;1.90;;
8074;SDS011;4080;42.676;23.372;2022-11-20T08:31:11;7.90;;;1.97;;
8074;SDS011;4080;42.676;23.372;2022-11-20T08:33:38;7.37;;;2.47;;
8074;SDS011;4080;42.676;23.372;2022-11-20T08:36:05;8.60;;;2.33;;
8074;SDS011;4080;42.676;23.372;2022-11-20T08:38:34;4.20;;;1.90;;
8074;SDS011;4080;42.676;23.372;2022-11-20T08:41:01;6.90;;;2.07;;
8074;SDS011;4080;42.676;23.372;2022-11-20T08:43:47;6.77;;;2.00;;
8074;SDS011;4080;42.676;23.372;2022-11-20T08:46:13;5.83;;;2.13;;
8074;SDS011;4080;42.676;23.372;2022-11-20T08:48:40;7.70;;;2.00;;
8074;SDS011;4080;42.676;23.372;2022-11-20T08:51:07;11.57;;;2.60;;
8074;SDS011;4080;42.676;23.372;2022-11-20T08:53:35;6.83;;;2.33;;
8074;SDS011;4080;42.676;23.372;2022-11-20T08:56:02;6.13;;;3.00;;
8074;SDS011;4080;42.676;23.372;2022-11-20T08:58:29;19.63;;;8.60;;
8074;SDS011;4080;42.676;23.372;2022-11-20T09:00:56;6.43;;;3.40;;
8074;SDS011;4080;42.676;23.372;2022-11-20T09:03:23;8.37;;;2.33;;
8074;SDS011;4080;42.676;23.372;2022-11-20T09:05:56;7.40;;;2.77;;
8074;SDS011;4080;42.676;23.372;2022-11-20T09:08:23;5.83;;;2.70;;
8074;SDS011;4080;42.676;23.372;2022-11-20T09:10:52;11.40;;;3.90;;
8074;SDS011;4080;42.676;23.372;2022-11-20T09:13:19;8.63;;;2.63;;
8074;SDS011;4080;42.676;23.372;2022-11-20T09:15:45;12.97;;;8.33;;
8074;SDS011;4080;42.676;23.372;2022-11-20T09:18:12;12.90;;;7.03;;
8074;SDS011;4080;42.676;23.372;2022-11-20T09:20:39;6.37;;;2.40;;
8074;SDS011;4080;42.676;23.372;2022-11-20T09:23:06;3.63;;;2.03;;
8074;SDS011;4080;42.676;23.372;2022-11-20T09:25:33;3.47;;;2.60;;
8074;SDS011;4080;42.676;23.372;2022-11-20T09:28:01;6.73;;;3.20;;
8074;SDS011;4080;42.676;23.372;2022-11-20T09:30:27;3.63;;;2.60;;
8074;SDS011;4080;42.676;23.372;2022-11-20T09:32:56;3.27;;;2.10;;
8074;SDS011;4080;42.676;23.372;2022-11-20T09:35:22;2.47;;;2.10;;
8074;SDS011;4080;42.676;23.372;2022-11-20T09:37:49;4.40;;;1.53;;
8074;SDS011;4080;42.676;23.372;2022-11-20T09:40:18;7.67;;;2.10;;
8074;SDS011;4080;42.676;23.372;2022-11-20T09:42:47;5.33;;;1.70;;
8074;SDS011;4080;42.676;23.372;2022-11-20T09:45:23;3.10;;;1.57;;
8074;SDS011;4080;42.676;23.372;2022-11-20T09:47:59;2.17;;;1.47;;
8074;SDS011;4080;42.676;23.372;2022-11-20T09:50:37;3.00;;;1.57;;
8074;SDS011;4080;42.676;23.372;2022-11-20T09:53:11;2.33;;;1.80;;
8074;SDS011;4080;42.676;23.372;2022-11-20T09:55:40;6.43;;;2.10;;
8074;SDS011;4080;42.676;23.372;2022-11-20T09:58:07;4.10;;;1.93;;
8074;SDS011;4080;42.676;23.372;2022-11-20T10:00:40;7.10;;;2.00;;
8074;SDS011;4080;42.676;23.372;2022-11-20T10:03:11;3.43;;;2.30;;
8074;SDS011;4080;42.676;23.372;2022-11-20T10:05:44;4.73;;;3.27;;
8074;SDS011;4080;42.676;23.372;2022-11-20T10:08:14;6.50;;;4.50;;
8074;SDS011;4080;42.676;23.372;2022-11-20T10:10:46;5.83;;;3.17;;
8074;SDS011;4080;42.676;23.372;2022-11-20T10:13:28;10.50;;;4.10;;
8074;SDS011;4080;42.676;23.372;2022-11-20T10:16:11;6.27;;;3.67;;
8074;SDS011;4080;42.676;23.372;2022-11-20T10:18:57;8.83;;;4.33;;
8074;SDS011;4080;42.676;23.372;2022-11-20T10:21:34;10.40;;;6.17;;
8074;SDS011;4080;42.676;23.372;2022-11-20T10:24:26;9.47;;;6.23;;
8074;SDS011;4080;42.676;23.372;2022-11-20T10:27:08;8.47;;;4.80;;
8074;SDS011;4080;42.676;23.372;2022-11-20T10:29:52;13.20;;;4.70;;
8074;SDS011;4080;42.676;23.372;2022-11-20T10:32:30;11.23;;;6.07;;
8074;SDS011;4080;42.676;23.372;2022-11-20T10:35:04;11.07;;;5.50;;
8074;SDS011;4080;42.676;23.372;2022-11-20T10:37:40;8.53;;;4.57;;
8074;SDS011;4080;42.676;23.372;2022-11-20T10:40:17;9.40;;;4.40;;
8074;SDS011;4080;42.676;23.372;2022-11-20T10:42:49;9.13;;;5.00;;
8074;SDS011;4080;42.676;23.372;2022-11-20T10:45:27;11.60;;;5.23;;
8074;SDS011;4080;42.676;23.372;2022-11-20T10:48:10;11.90;;;5.10;;
8074;SDS011;4080;42.676;23.372;2022-11-20T10:50:46;8.50;;;4.97;;
8074;SDS011;4080;42.676;23.372;2022-11-20T10:53:25;6.30;;;4.50;;
8074;SDS011;4080;42.676;23.372;2022-11-20T10:56:05;12.30;;;6.07;;
8074;SDS011;4080;42.676;23.372;2022-11-20T10:58:37;11.33;;;5.80;;
8074;SDS011;4080;42.676;23.372;2022-11-20T11:01:13;10.67;;;5.53;;
8074;SDS011;4080;42.676;23.372;2022-11-20T11:03:43;7.03;;;4.13;;
8074;SDS011;4080;42.676;23.372;2022-11-20T11:06:11;11.07;;;6.67;;
8074;SDS011;4080;42.676;23.372;2022-11-20T11:08:45;12.83;;;5.63;;
8074;SDS011;4080;42.676;23.372;2022-11-20T11:11:18;10.03;;;4.87;;
8074;SDS011;4080;42.676;23.372;2022-11-20T11:13:48;9.60;;;5.50;;
8074;SDS011;4080;42.676;23.372;2022-11-20T11:16:18;12.03;;;6.43;;
8074;SDS011;4080;42.676;23.372;2022-11-20T11:18:49;18.03;;;7.43;;
8074;SDS011;4080;42.676;23.372;2022-11-20T11:21:21;8.17;;;4.47;;
8074;SDS011;4080;42.676;23.372;2022-11-20T11:23:57;4.27;;;2.30;;
8074;SDS011;4080;42.676;23.372;2022-11-20T11:26:26;6.23;;;1.90;;
8074;SDS011;4080;42.676;23.372;2022-11-20T11:28:56;4.67;;;1.40;;
8074;SDS011;4080;42.676;23.372;2022-11-20T11:31:28;5.90;;;1.57;;
8074;SDS011;4080;42.676;23.372;2022-11-20T11:34:07;3.63;;;1.40;;
8074;SDS011;4080;42.676;23.372;2022-11-20T11:36:37;3.63;;;2.10;;
8074;SDS011;4080;42.676;23.372;2022-11-20T11:39:04;3.77;;;3.37;;
8074;SDS011;4080;42.676;23.372;2022-11-20T11:41:37;2.00;;;1.80;;
8074;SDS011;4080;42.676;23.372;2022-11-20T11:44:18;2.97;;;1.70;;
8074;SDS011;4080;42.676;23.372;2022-11-20T11:47:04;2.50;;;1.90;;
8074;SDS011;4080;42.676;23.372;2022-11-20T11:49:37;3.27;;;1.37;;
8074;SDS011;4080;42.676;23.372;2022-11-20T11:52:05;1.67;;;1.20;;
8074;SDS011;4080;42.676;23.372;2022-11-20T11:54:40;3.20;;;1.27;;
8074;SDS011;4080;42.676;23.372;2022-11-20T11:57:11;3.17;;;1.30;;
8074;SDS011;4080;42.676;23.372;2022-11-20T11:59:44;3.70;;;1.77;;
8074;SDS011;4080;42.676;23.372;2022-11-20T12:02:25;3.83;;;1.67;;
8074;SDS011;4080;42.676;23.372;2022-11-20T12:05:02;4.93;;;2.03;;
8074;SDS011;4080;42.676;23.372;2022-11-20T12:07:38;4.53;;;1.40;;
8074;SDS011;4080;42.676;23.372;2022-11-20T12:10:12;5.47;;;1.50;;
8074;SDS011;4080;42.676;23.372;2022-11-20T12:12:44;3.97;;;1.43;;
8074;SDS011;4080;42.676;23.372;2022-11-20T12:15:16;2.63;;;1.30;;
8074;SDS011;4080;42.676;23.372;2022-11-20T12:17:51;2.60;;;1.67;;
8074;SDS011;4080;42.676;23.372;2022-11-20T12:20:19;2.67;;;1.47;;
8074;SDS011;4080;42.676;23.372;2022-11-20T12:22:49;6.70;;;1.17;;
8074;SDS011;4080;42.676;23.372;2022-11-20T12:25:22;1.70;;;1.00;;
8074;SDS011;4080;42.676;23.372;2022-11-20T12:30:53;1.70;;;1.03;;
8074;SDS011;4080;42.676;23.372;2022-11-20T12:33:44;1.83;;;1.50;;
8074;SDS011;4080;42.676;23.372;2022-11-20T12:36:22;4.83;;;1.67;;
8074;SDS011;4080;42.676;23.372;2022-11-20T12:39:05;2.53;;;1.10;;
8074;SDS011;4080;42.676;23.372;2022-11-20T12:41:51;2.10;;;1.20;;
8074;SDS011;4080;42.676;23.372;2022-11-20T12:45:01;2.73;;;1.60;;
8074;SDS011;4080;42.676;23.372;2022-11-20T12:47:41;4.17;;;1.70;;
8074;SDS011;4080;42.676;23.372;2022-11-20T12:50:28;3.27;;;1.53;;
8074;SDS011;4080;42.676;23.372;2022-11-20T12:53:02;2.53;;;1.70;;
8074;SDS011;4080;42.676;23.372;2022-11-20T12:55:36;4.23;;;1.83;;
8074;SDS011;4080;42.676;23.372;2022-11-20T12:58:16;4.10;;;1.63;;
8074;SDS011;4080;42.676;23.372;2022-11-20T13:00:52;3.60;;;2.20;;
8074;SDS011;4080;42.676;23.372;2022-11-20T13:06:12;7.53;;;5.70;;
8074;SDS011;4080;42.676;23.372;2022-11-20T13:08:43;8.23;;;5.57;;
8074;SDS011;4080;42.676;23.372;2022-11-20T13:11:15;9.73;;;5.03;;
8074;SDS011;4080;42.676;23.372;2022-11-20T13:13:52;19.43;;;10.03;;
8074;SDS011;4080;42.676;23.372;2022-11-20T13:16:38;13.03;;;7.73;;
8074;SDS011;4080;42.676;23.372;2022-11-20T13:19:12;14.73;;;7.60;;
8074;SDS011;4080;42.676;23.372;2022-11-20T13:21:42;12.60;;;7.43;;
8074;SDS011;4080;42.676;23.372;2022-11-20T13:24:22;9.67;;;4.87;;
8074;SDS011;4080;42.676;23.372;2022-11-20T13:27:05;7.33;;;4.43;;
8074;SDS011;4080;42.676;23.372;2022-11-20T13:29:45;5.63;;;3.33;;
8074;SDS011;4080;42.676;23.372;2022-11-20T13:32:13;5.73;;;3.13;;
8074;SDS011;4080;42.676;23.372;2022-11-20T13:34:51;7.00;;;3.60;;
8074;SDS011;4080;42.676;23.372;2022-11-20T13:37:24;5.83;;;2.73;;
8074;SDS011;4080;42.676;23.372;2022-11-20T13:40:04;6.70;;;3.70;;
8074;SDS011;4080;42.676;23.372;2022-11-20T13:42:38;5.03;;;2.40;;
8074;SDS011;4080;42.676;23.372;2022-11-20T13:45:10;4.67;;;2.77;;
8074;SDS011;4080;42.676;23.372;2022-11-20T13:47:47;7.87;;;2.87;;
8074;SDS011;4080;42.676;23.372;2022-11-20T13:50:15;6.00;;;3.20;;
8074;SDS011;4080;42.676;23.372;2022-11-20T13:52:45;5.60;;;3.50;;
8074;SDS011;4080;42.676;23.372;2022-11-20T13:55:21;5.67;;;3.40;;
8074;SDS011;4080;42.676;23.372;2022-11-20T14:00:56;8.53;;;5.57;;
8074;SDS011;4080;42.676;23.372;2022-11-20T14:03:28;10.23;;;6.80;;
8074;SDS011;4080;42.676;23.372;2022-11-20T14:05:57;8.03;;;4.83;;
8074;SDS011;4080;42.676;23.372;2022-11-20T14:11:29;9.00;;;6.10;;
8074;SDS011;4080;42.676;23.372;2022-11-20T14:13:59;8.67;;;5.23;;
8074;SDS011;4080;42.676;23.372;2022-11-20T14:16:28;9.60;;;5.73;;
8074;SDS011;4080;42.676;23.372;2022-11-20T14:18:56;9.50;;;5.87;;
8074;SDS011;4080;42.676;23.372;2022-11-20T14:21:37;8.97;;;5.47;;
8074;SDS011;4080;42.676;23.372;2022-11-20T14:24:04;11.17;;;6.07;;
8074;SDS011;4080;42.676;23.372;2022-11-20T14:26:33;12.93;;;5.60;;
8074;SDS011;4080;42.676;23.372;2022-11-20T14:29:00;6.57;;;4.60;;
8074;SDS011;4080;42.676;23.372;2022-11-20T14:31:27;6.23;;;3.93;;
8074;SDS011;4080;42.676;23.372;2022-11-20T14:33:54;9.60;;;4.47;;
8074;SDS011;4080;42.676;23.372;2022-11-20T14:36:23;10.30;;;5.10;;
8074;SDS011;4080;42.676;23.372;2022-11-20T14:38:51;11.70;;;5.17;;
8074;SDS011;4080;42.676;23.372;2022-11-20T14:41:19;10.07;;;5.50;;
8074;SDS011;4080;42.676;23.372;2022-11-20T14:43:50;17.10;;;10.00;;
8074;SDS011;4080;42.676;23.372;2022-11-20T14:46:20;12.17;;;9.40;;
8074;SDS011;4080;42.676;23.372;2022-11-20T14:48:49;12.97;;;6.90;;
8074;SDS011;4080;42.676;23.372;2022-11-20T14:51:29;6.87;;;5.50;;
8074;SDS011;4080;42.676;23.372;2022-11-20T14:54:07;13.23;;;7.50;;
8074;SDS011;4080;42.676;23.372;2022-11-20T14:56:35;16.67;;;7.43;;
8074;SDS011;4080;42.676;23.372;2022-11-20T14:59:03;14.17;;;7.10;;
8074;SDS011;4080;42.676;23.372;2022-11-20T15:01:33;42.13;;;38.10;;
8074;SDS011;4080;42.676;23.372;2022-11-20T15:04:11;14.97;;;9.63;;
8074;SDS011;4080;42.676;23.372;2022-11-20T15:06:50;14.33;;;10.03;;
8074;SDS011;4080;42.676;23.372;2022-11-20T15:13:41;17.00;;;8.30;;
8074;SDS011;4080;42.676;23.372;2022-11-20T15:16:21;10.60;;;6.87;;
8074;SDS011;4080;42.676;23.372;2022-11-20T15:19:16;11.13;;;6.53;;
8074;SDS011;4080;42.676;23.372;2022-11-20T15:21:45;8.63;;;5.90;;
8074;SDS011;4080;42.676;23.372;2022-11-20T15:24:12;7.70;;;4.40;;
8074;SDS011;4080;42.676;23.372;2022-11-20T15:26:39;6.83;;;4.50;;
8074;SDS011;4080;42.676;23.372;2022-11-20T15:29:07;6.73;;;3.90;;
8074;SDS011;4080;42.676;23.372;2022-11-20T15:31:37;6.07;;;3.30;;
8074;SDS011;4080;42.676;23.372;2022-11-20T15:34:17;3.57;;;3.00;;
8074;SDS011;4080;42.676;23.372;2022-11-20T15:36:44;8.23;;;4.90;;
8074;SDS011;4080;42.676;23.372;2022-11-20T15:39:11;9.57;;;4.87;;
8074;SDS011;4080;42.676;23.372;2022-11-20T15:41:44;14.93;;;10.43;;
8074;SDS011;4080;42.676;23.372;2022-11-20T15:44:22;16.10;;;10.17;;
8074;SDS011;4080;42.676;23.372;2022-11-20T15:46:58;8.47;;;6.10;;
8074;SDS011;4080;42.676;23.372;2022-11-20T15:49:25;6.47;;;3.70;;
8074;SDS011;4080;42.676;23.372;2022-11-20T15:51:51;8.40;;;4.80;;
8074;SDS011;4080;42.676;23.372;2022-11-20T15:54:19;6.03;;;4.80;;
8074;SDS011;4080;42.676;23.372;2022-11-20T15:56:47;4.10;;;3.20;;
8074;SDS011;4080;42.676;23.372;2022-11-20T15:59:14;4.73;;;3.17;;
8074;SDS011;4080;42.676;23.372;2022-11-20T16:01:41;3.23;;;2.50;;
8074;SDS011;4080;42.676;23.372;2022-11-20T16:04:11;4.47;;;2.33;;
8074;SDS011;4080;42.676;23.372;2022-11-20T16:06:38;4.40;;;2.27;;
8074;SDS011;4080;42.676;23.372;2022-11-20T16:09:05;5.57;;;2.67;;
8074;SDS011;4080;42.676;23.372;2022-11-20T16:11:32;5.50;;;2.97;;
8074;SDS011;4080;42.676;23.372;2022-11-20T16:14:00;3.07;;;2.53;;
8074;SDS011;4080;42.676;23.372;2022-11-20T16:16:44;5.50;;;3.60;;
8074;SDS011;4080;42.676;23.372;2022-11-20T16:19:14;8.83;;;3.67;;
8074;SDS011;4080;42.676;23.372;2022-11-20T16:21:41;4.43;;;3.40;;